Time;durP1;ratioP1;P1;durP2;ratioP2;P2;SDS_P1;SDS_P2;PMS_P1;PMS_P2;Temp;Humidity;BMP_temperature;BMP_pressure;BME280_temperature;BME280_humidity;BME280_pressure;Samples;Min_cycle;Max_cycle;Signal;HPM_P1;HPM_P2
2023/03/01 00:00:49;;;;;;;;;21.25;19.50;;;;;;;;5072701;28;45240;-73
2023/03/01 00:03:14;;;;;;;;;18.50;18.25;;;;;;;;5073867;28;45934;-73
2023/03/01 00:05:46;;;;;;;;;26.25;22.50;;;;;;;;5074866;28;45265;-73
2023/03/01 00:08:11;;;;;;;;;23.75;20.25;;;;;;;;5074996;28;45372;-73
2023/03/01 00:10:37;;;;;;;;;19.50;18.75;;;;;;;;5074582;28;45426;-73
2023/03/01 00:13:02;;;;;;;;;20.25;18.00;;;;;;;;5073337;28;48241;-74
2023/03/01 00:15:27;;;;;;;;;20.50;20.50;;;;;;;;5074159;28;45468;-73
2023/03/01 00:17:52;;;;;;;;;21.25;18.50;;;;;;;;5074653;28;45353;-73
2023/03/01 00:20:18;;;;;;;;;20.75;18.75;;;;;;;;5071292;28;45410;-73
2023/03/01 00:22:43;;;;;;;;;26.75;21.75;;;;;;;;5074457;28;46225;-74
2023/03/01 00:25:09;;;;;;;;;23.50;20.00;;;;;;;;5074501;28;45378;-73
2023/03/01 00:27:34;;;;;;;;;22.50;19.75;;;;;;;;5074639;28;45370;-73
2023/03/01 00:29:59;;;;;;;;;24.75;22.75;;;;;;;;5074197;28;45645;-74
2023/03/01 00:32:24;;;;;;;;;27.50;23.25;;;;;;;;5074428;28;45446;-73
2023/03/01 00:34:54;;;;;;;;;24.00;22.75;;;;;;;;5074848;28;45339;-73
2023/03/01 00:37:22;;;;;;;;;21.25;18.50;;;;;;;;5074193;28;45446;-73
2023/03/01 00:39:47;;;;;;;;;21.50;19.75;;;;;;;;5074509;28;45583;-73
2023/03/01 00:42:13;;;;;;;;;22.25;21.00;;;;;;;;5075013;28;45399;-73
2023/03/01 00:44:38;;;;;;;;;25.00;21.00;;;;;;;;5074792;28;45326;-73
2023/03/01 00:47:03;;;;;;;;;21.00;20.00;;;;;;;;5075019;28;45408;-73
2023/03/01 00:49:28;;;;;;;;;21.00;21.00;;;;;;;;5074476;28;45405;-73
2023/03/01 00:51:54;;;;;;;;;23.75;20.75;;;;;;;;5076586;28;46277;-73
2023/03/01 00:54:19;;;;;;;;;20.25;20.25;;;;;;;;5076806;28;45317;-73
2023/03/01 00:56:44;;;;;;;;;24.25;21.00;;;;;;;;5078450;28;45367;-73
2023/03/01 00:59:09;;;;;;;;;27.00;25.00;;;;;;;;5078022;27;45514;-74
2023/03/01 01:01:35;;;;;;;;;20.25;20.00;;;;;;;;5077778;28;45361;-73
2023/03/01 01:04:01;;;;;;;;;23.25;19.25;;;;;;;;5076895;28;45326;-73
2023/03/01 01:06:28;;;;;;;;;20.25;19.25;;;;;;;;5076667;28;45389;-73
2023/03/01 01:08:54;;;;;;;;;21.75;21.75;;;;;;;;5077738;28;45352;-72
2023/03/01 01:11:20;;;;;;;;;20.50;18.25;;;;;;;;5077266;27;46120;-73
2023/03/01 01:13:46;;;;;;;;;24.75;20.75;;;;;;;;5073251;28;45358;-73
2023/03/01 01:16:12;;;;;;;;;28.25;23.00;;;;;;;;5076030;28;45408;-74
2023/03/01 01:18:37;;;;;;;;;20.75;19.75;;;;;;;;5076175;28;45525;-73
2023/03/01 01:21:04;;;;;;;;;24.75;22.50;;;;;;;;5076013;28;45423;-73
2023/03/01 01:23:29;;;;;;;;;24.75;21.25;;;;;;;;5077444;27;45329;-73
2023/03/01 01:25:54;;;;;;;;;20.50;17.00;;;;;;;;5077688;27;45480;-73
2023/03/01 01:28:19;;;;;;;;;19.50;17.50;;;;;;;;5077517;27;45324;-74
2023/03/01 01:30:44;;;;;;;;;22.50;19.75;;;;;;;;5077284;27;45514;-73
2023/03/01 01:33:10;;;;;;;;;20.50;19.75;;;;;;;;5075348;27;45397;-73
2023/03/01 01:35:35;;;;;;;;;22.75;20.50;;;;;;;;5075829;27;45428;-73
2023/03/01 01:38:00;;;;;;;;;16.75;16.75;;;;;;;;5075830;27;45498;-73
2023/03/01 01:40:25;;;;;;;;;24.00;19.75;;;;;;;;5075934;28;46378;-73
2023/03/01 01:42:51;;;;;;;;;26.25;20.75;;;;;;;;5075888;27;45216;-73
2023/03/01 01:45:31;;;;;;;;;23.25;19.25;;;;;;;;5076241;28;45428;-72
2023/03/01 01:48:10;;;;;;;;;26.50;21.75;;;;;;;;5076143;28;45529;-72
2023/03/01 01:50:39;;;;;;;;;25.00;24.75;;;;;;;;5075747;28;45402;-73
2023/03/01 01:53:14;;;;;;;;;23.25;19.25;;;;;;;;5075750;28;45456;-72
2023/03/01 01:55:41;;;;;;;;;20.75;19.00;;;;;;;;5073560;28;45515;-72
2023/03/01 01:58:08;;;;;;;;;19.25;19.25;;;;;;;;5076475;27;45360;-72
2023/03/01 02:00:34;;;;;;;;;21.00;21.00;;;;;;;;5075209;28;47125;-72
2023/03/01 02:03:01;;;;;;;;;20.00;16.75;;;;;;;;5074479;28;45420;-73
2023/03/01 02:05:45;;;;;;;;;19.75;17.75;;;;;;;;5075087;27;46402;-73
2023/03/01 02:08:14;;;;;;;;;12.75;12.75;;;;;;;;5072833;28;45340;-72
2023/03/01 02:10:40;;;;;;;;;22.75;21.75;;;;;;;;5074658;27;45717;-72
2023/03/01 02:13:06;;;;;;;;;23.50;23.50;;;;;;;;5075191;28;45415;-73
2023/03/01 02:15:32;;;;;;;;;21.00;21.00;;;;;;;;5075240;28;45416;-73
2023/03/01 02:17:57;;;;;;;;;26.50;21.50;;;;;;;;5075387;27;45283;-73
2023/03/01 02:20:29;;;;;;;;;26.75;23.25;;;;;;;;5074643;28;46319;-73
2023/03/01 02:22:54;;;;;;;;;24.50;20.25;;;;;;;;5073272;28;45557;-73
2023/03/01 02:25:40;;;;;;;;;24.75;23.25;;;;;;;;5076345;27;45777;-73
2023/03/01 02:28:11;;;;;;;;;23.00;20.50;;;;;;;;5076386;28;45341;-72
2023/03/01 02:30:36;;;;;;;;;21.50;20.25;;;;;;;;5074845;28;47209;-72
2023/03/01 02:33:02;;;;;;;;;20.75;20.75;;;;;;;;5076631;28;45299;-72
2023/03/01 02:35:33;;;;;;;;;22.25;21.75;;;;;;;;5076658;28;45364;-72
2023/03/01 02:38:00;;;;;;;;;12.25;11.50;;;;;;;;5076593;28;45432;-72
2023/03/01 02:40:27;;;;;;;;;23.00;17.25;;;;;;;;5076102;27;47128;-72
2023/03/01 02:42:55;;;;;;;;;23.25;21.50;;;;;;;;5076646;28;45349;-73
2023/03/01 02:45:21;;;;;;;;;20.25;19.00;;;;;;;;5076231;28;45444;-74
2023/03/01 02:47:46;;;;;;;;;23.75;21.50;;;;;;;;5076318;28;45385;-73
2023/03/01 02:50:31;;;;;;;;;28.75;22.25;;;;;;;;5075782;28;46180;-73
2023/03/01 02:52:59;;;;;;;;;25.00;20.25;;;;;;;;5068694;28;45434;-73
2023/03/01 02:55:25;;;;;;;;;11.75;11.25;;;;;;;;5076214;28;45366;-73
2023/03/01 02:57:50;;;;;;;;;23.75;21.75;;;;;;;;5074888;28;45349;-73
2023/03/01 03:00:21;;;;;;;;;18.50;18.50;;;;;;;;5075915;28;46002;-73
2023/03/01 03:02:47;;;;;;;;;22.00;21.50;;;;;;;;5076103;28;45424;-73
2023/03/01 03:05:14;;;;;;;;;22.25;20.75;;;;;;;;5074053;28;45514;-71
2023/03/01 03:07:41;;;;;;;;;18.75;17.50;;;;;;;;5075489;28;45486;-72
2023/03/01 03:10:08;;;;;;;;;21.50;19.75;;;;;;;;5075593;28;45579;-71
2023/03/01 03:12:33;;;;;;;;;22.25;21.75;;;;;;;;5075733;28;45356;-72
2023/03/01 03:14:58;;;;;;;;;17.25;15.50;;;;;;;;5075899;28;45420;-73
2023/03/01 03:17:24;;;;;;;;;19.00;16.00;;;;;;;;5076152;28;45362;-72
2023/03/01 03:19:49;;;;;;;;;19.75;19.75;;;;;;;;5075548;28;45480;-71
2023/03/01 03:22:14;;;;;;;;;29.25;21.25;;;;;;;;5074636;28;45535;-71
2023/03/01 03:24:40;;;;;;;;;22.25;20.75;;;;;;;;5074688;28;45379;-73
2023/03/01 03:27:05;;;;;;;;;23.75;21.50;;;;;;;;5075972;28;45283;-71
2023/03/01 03:29:31;;;;;;;;;20.00;18.25;;;;;;;;5075536;28;46921;-73
2023/03/01 03:31:56;;;;;;;;;19.75;18.50;;;;;;;;5075521;28;45420;-71
2023/03/01 03:34:21;;;;;;;;;21.75;21.75;;;;;;;;5075498;28;45501;-71
2023/03/01 03:36:46;;;;;;;;;19.25;19.00;;;;;;;;5075583;28;45306;-72
2023/03/01 03:39:11;;;;;;;;;29.25;21.25;;;;;;;;5073972;28;47423;-72
2023/03/01 03:41:37;;;;;;;;;23.00;20.00;;;;;;;;5075523;28;45425;-73
2023/03/01 03:44:02;;;;;;;;;28.50;24.50;;;;;;;;5075608;28;45276;-73
2023/03/01 03:46:27;;;;;;;;;21.75;20.50;;;;;;;;5074789;28;45631;-73
2023/03/01 03:48:52;;;;;;;;;18.25;18.25;;;;;;;;5073637;28;47639;-73
2023/03/01 03:51:18;;;;;;;;;21.25;19.50;;;;;;;;5075346;28;45305;-73
2023/03/01 03:53:43;;;;;;;;;23.25;20.25;;;;;;;;5075439;28;45327;-73
2023/03/01 03:56:09;;;;;;;;;25.75;22.00;;;;;;;;5075079;27;45394;-73
2023/03/01 03:58:34;;;;;;;;;20.25;19.00;;;;;;;;5075208;27;46200;-73
2023/03/01 04:01:00;;;;;;;;;26.75;19.75;;;;;;;;5075283;28;45310;-73
2023/03/01 04:03:26;;;;;;;;;27.75;23.00;;;;;;;;5075249;28;45354;-73
2023/03/01 04:05:52;;;;;;;;;24.50;24.50;;;;;;;;5075099;27;45254;-74
2023/03/01 04:08:19;;;;;;;;;24.75;19.75;;;;;;;;5074958;27;47161;-73
2023/03/01 04:10:45;;;;;;;;;30.00;21.75;;;;;;;;5073579;28;45403;-73
2023/03/01 04:13:12;;;;;;;;;23.50;22.50;;;;;;;;5074989;27;45416;-73
2023/03/01 04:15:38;;;;;;;;;22.25;20.75;;;;;;;;5075173;28;45450;-73
2023/03/01 04:18:04;;;;;;;;;24.25;24.25;;;;;;;;5073392;28;48158;-73
2023/03/01 04:20:33;;;;;;;;;24.00;23.75;;;;;;;;5074797;28;45399;-73
2023/03/01 04:23:10;;;;;;;;;19.50;19.25;;;;;;;;5074850;28;45384;-73
2023/03/01 04:25:35;;;;;;;;;20.75;18.25;;;;;;;;5075232;28;45432;-73
2023/03/01 04:28:00;;;;;;;;;28.25;22.50;;;;;;;;5078587;28;45578;-73
2023/03/01 04:30:25;;;;;;;;;28.75;26.25;;;;;;;;5077626;28;45466;-74
2023/03/01 04:32:50;;;;;;;;;28.00;22.25;;;;;;;;5078431;28;45389;-73
2023/03/01 04:35:16;;;;;;;;;20.75;20.75;;;;;;;;5077021;28;45454;-73
2023/03/01 04:37:41;;;;;;;;;28.25;24.00;;;;;;;;5078316;28;46310;-73
2023/03/01 04:40:16;;;;;;;;;13.50;10.75;;;;;;;;5078208;28;45469;-73
2023/03/01 04:42:42;;;;;;;;;27.75;24.25;;;;;;;;5078088;27;45424;-73
2023/03/01 04:45:12;;;;;;;;;28.00;25.75;;;;;;;;5077906;27;45451;-73
2023/03/01 04:47:38;;;;;;;;;29.75;25.75;;;;;;;;5077579;28;46160;-73
2023/03/01 04:50:03;;;;;;;;;29.75;27.50;;;;;;;;5076548;28;45462;-73
2023/03/01 04:52:28;;;;;;;;;31.50;24.50;;;;;;;;5078130;28;45411;-73
2023/03/01 04:54:54;;;;;;;;;24.25;23.50;;;;;;;;5077868;28;45400;-73
2023/03/01 04:57:19;;;;;;;;;24.50;23.00;;;;;;;;5076783;28;47379;-73
2023/03/01 04:59:45;;;;;;;;;26.50;24.00;;;;;;;;5077513;28;45411;-73
2023/03/01 05:02:10;;;;;;;;;34.50;25.50;;;;;;;;5078242;28;45514;-73
2023/03/01 05:04:35;;;;;;;;;31.00;26.00;;;;;;;;5078129;28;45314;-74
2023/03/01 05:07:00;;;;;;;;;24.50;23.00;;;;;;;;5077772;28;46784;-73
2023/03/01 05:09:25;;;;;;;;;28.75;28.25;;;;;;;;5077449;28;45491;-73
2023/03/01 05:11:51;;;;;;;;;31.00;25.75;;;;;;;;5077788;27;45396;-72
2023/03/01 05:14:17;;;;;;;;;27.50;25.00;;;;;;;;5077318;28;45499;-73
2023/03/01 05:16:42;;;;;;;;;27.00;24.50;;;;;;;;5077819;27;45450;-74
2023/03/01 05:19:15;;;;;;;;;22.00;19.50;;;;;;;;5077720;27;45386;-73
2023/03/01 05:22:01;;;;;;;;;26.50;26.00;;;;;;;;5077626;28;45382;-74
2023/03/01 05:24:26;;;;;;;;;37.50;31.50;;;;;;;;5077485;28;45639;-73
2023/03/01 05:26:51;;;;;;;;;36.25;28.50;;;;;;;;5077709;28;46334;-73
2023/03/01 05:29:17;;;;;;;;;27.75;26.00;;;;;;;;5076682;28;45456;-73
2023/03/01 05:31:42;;;;;;;;;28.50;25.25;;;;;;;;5077116;28;45401;-73
2023/03/01 05:34:07;;;;;;;;;28.00;26.75;;;;;;;;5077316;28;45489;-73
2023/03/01 05:36:33;;;;;;;;;31.25;24.75;;;;;;;;5077240;28;47164;-73
2023/03/01 05:38:58;;;;;;;;;22.75;19.25;;;;;;;;5075964;28;45289;-73
2023/03/01 05:41:23;;;;;;;;;30.25;23.75;;;;;;;;5077318;28;45245;-73
2023/03/01 05:43:49;;;;;;;;;39.75;31.00;;;;;;;;5077013;28;45310;-73
2023/03/01 05:46:14;;;;;;;;;30.25;27.00;;;;;;;;5076889;27;47074;-73
2023/03/01 05:48:40;;;;;;;;;30.50;27.25;;;;;;;;5075469;28;45280;-73
2023/03/01 05:51:06;;;;;;;;;36.25;30.50;;;;;;;;5076851;28;45308;-73
2023/03/01 05:53:31;;;;;;;;;25.00;22.00;;;;;;;;5076102;28;45402;-73
2023/03/01 05:55:56;;;;;;;;;33.00;30.00;;;;;;;;5076849;28;45276;-73
2023/03/01 05:58:21;;;;;;;;;36.00;27.00;;;;;;;;5076765;28;45345;-73
2023/03/01 06:00:48;;;;;;;;;27.75;23.00;;;;;;;;5075669;28;45280;-73
2023/03/01 06:03:14;;;;;;;;;35.75;31.75;;;;;;;;5076623;28;45448;-73
2023/03/01 06:05:40;;;;;;;;;28.75;28.75;;;;;;;;5077071;28;46226;-73
2023/03/01 06:08:05;;;;;;;;;33.25;32.50;;;;;;;;5076858;28;45398;-74
2023/03/01 06:10:30;;;;;;;;;30.25;26.00;;;;;;;;5076769;28;45409;-73
2023/03/01 06:12:56;;;;;;;;;39.50;37.00;;;;;;;;5076406;28;45379;-73
2023/03/01 06:15:21;;;;;;;;;30.25;29.00;;;;;;;;5076641;28;46031;-73
2023/03/01 06:17:46;;;;;;;;;32.75;31.50;;;;;;;;5075284;28;45458;-73
2023/03/01 06:20:14;;;;;;;;;40.50;37.50;;;;;;;;5076598;28;45427;-73
2023/03/01 06:22:39;;;;;;;;;39.50;35.25;;;;;;;;5076527;28;45342;-71
2023/03/01 06:25:05;;;;;;;;;27.75;26.75;;;;;;;;5076630;28;45360;-73
2023/03/01 06:27:30;;;;;;;;;33.00;32.75;;;;;;;;5075494;28;45415;-73
2023/03/01 06:29:55;;;;;;;;;34.00;26.25;;;;;;;;5076531;28;45376;-73
2023/03/01 06:32:21;;;;;;;;;34.75;34.00;;;;;;;;5076734;28;45251;-73
2023/03/01 06:34:46;;;;;;;;;30.50;27.50;;;;;;;;5076521;28;46230;-73
2023/03/01 06:37:11;;;;;;;;;38.25;35.50;;;;;;;;5075079;28;45310;-73
2023/03/01 06:39:36;;;;;;;;;46.00;41.00;;;;;;;;5076649;28;45337;-73
2023/03/01 06:42:01;;;;;;;;;39.50;34.75;;;;;;;;5076457;28;45353;-73
2023/03/01 06:44:27;;;;;;;;;41.75;38.25;;;;;;;;5076581;28;45264;-73
2023/03/01 06:46:52;;;;;;;;;43.00;35.75;;;;;;;;5074696;28;45316;-73
2023/03/01 06:49:17;;;;;;;;;42.50;33.50;;;;;;;;5074690;28;45304;-73
2023/03/01 06:51:43;;;;;;;;;38.75;35.00;;;;;;;;5075458;28;45347;-73
2023/03/01 06:54:08;;;;;;;;;47.50;41.50;;;;;;;;5075933;28;46014;-73
2023/03/01 06:56:33;;;;;;;;;45.25;39.50;;;;;;;;5075874;28;45467;-73
2023/03/01 06:58:59;;;;;;;;;34.25;31.25;;;;;;;;5075913;28;45485;-73
2023/03/01 07:01:24;;;;;;;;;42.25;37.25;;;;;;;;5076154;28;45314;-73
2023/03/01 07:03:49;;;;;;;;;47.25;38.50;;;;;;;;5075190;28;46437;-73
2023/03/01 07:06:14;;;;;;;;;47.50;39.25;;;;;;;;5075424;28;45365;-73
2023/03/01 07:08:40;;;;;;;;;33.50;33.50;;;;;;;;5075945;28;45333;-73
2023/03/01 07:11:05;;;;;;;;;45.50;39.75;;;;;;;;5075647;28;45349;-73
2023/03/01 07:13:31;;;;;;;;;41.75;38.50;;;;;;;;5075427;28;47252;-73
2023/03/01 07:15:56;;;;;;;;;52.25;45.00;;;;;;;;5075588;28;45412;-73
2023/03/01 07:18:21;;;;;;;;;56.50;45.25;;;;;;;;5075844;28;45318;-73
2023/03/01 07:20:46;;;;;;;;;48.25;43.00;;;;;;;;5075549;28;45385;-73
2023/03/01 07:23:11;;;;;;;;;46.00;42.25;;;;;;;;5073966;28;47989;-73
2023/03/01 07:25:37;;;;;;;;;48.25;40.75;;;;;;;;5074268;28;45344;-73
2023/03/01 07:28:02;;;;;;;;;46.00;38.00;;;;;;;;5076202;28;45338;-73
2023/03/01 07:30:28;;;;;;;;;47.00;39.50;;;;;;;;5075611;28;45308;-73
2023/03/01 07:32:54;;;;;;;;;45.25;38.25;;;;;;;;5070815;28;45453;-72
2023/03/01 07:35:19;;;;;;;;;46.75;40.25;;;;;;;;5062104;28;45314;-72
2023/03/01 07:37:44;;;;;;;;;47.50;41.75;;;;;;;;5075692;28;45355;-72
2023/03/01 07:40:10;;;;;;;;;44.00;40.25;;;;;;;;5074098;28;45334;-74
2023/03/01 07:42:35;;;;;;;;;42.50;38.00;;;;;;;;5074923;28;45352;-73
2023/03/01 07:45:00;;;;;;;;;35.75;31.75;;;;;;;;5059057;28;45778;-73
2023/03/01 07:47:26;;;;;;;;;47.00;38.00;;;;;;;;5054647;28;45410;-72
2023/03/01 07:49:51;;;;;;;;;46.50;41.25;;;;;;;;5053298;28;45492;-73
2023/03/01 07:52:16;;;;;;;;;37.25;36.75;;;;;;;;5052849;28;46609;-73
2023/03/01 07:54:44;;;;;;;;;39.75;37.25;;;;;;;;5054667;28;45491;-72
2023/03/01 07:57:10;;;;;;;;;50.75;40.50;;;;;;;;5055701;28;46363;-74
2023/03/01 07:59:35;;;;;;;;;44.50;40.75;;;;;;;;5053804;28;45350;-74
2023/03/01 08:02:00;;;;;;;;;46.25;40.75;;;;;;;;5057502;28;45429;-73
2023/03/01 08:04:26;;;;;;;;;38.75;37.75;;;;;;;;5058811;28;45438;-74
2023/03/01 08:06:51;;;;;;;;;49.50;39.75;;;;;;;;5058014;28;45437;-73
2023/03/01 08:09:17;;;;;;;;;38.50;34.25;;;;;;;;5058243;28;45441;-72
2023/03/01 08:11:42;;;;;;;;;45.25;40.50;;;;;;;;5058201;28;45541;-73
2023/03/01 08:14:07;;;;;;;;;49.25;42.00;;;;;;;;5077957;28;45470;-73
2023/03/01 08:16:35;;;;;;;;;44.00;36.25;;;;;;;;5067039;27;45859;-75
2023/03/01 08:19:03;;;;;;;;;50.50;44.75;;;;;;;;5075961;27;45417;-73
2023/03/01 08:21:28;;;;;;;;;49.25;40.75;;;;;;;;5074176;27;45524;-72
2023/03/01 08:23:53;;;;;;;;;35.25;34.50;;;;;;;;5076090;28;45547;-72
2023/03/01 08:26:20;;;;;;;;;44.00;41.00;;;;;;;;5075687;28;45286;-72
2023/03/01 08:28:46;;;;;;;;;39.75;34.75;;;;;;;;5075589;28;45536;-74
2023/03/01 08:31:17;;;;;;;;;31.50;30.00;;;;;;;;5075938;27;45708;-72
2023/03/01 08:33:42;;;;;;;;;49.50;42.25;;;;;;;;5070458;28;45421;-72
2023/03/01 08:36:07;;;;;;;;;43.00;38.00;;;;;;;;5076523;27;46224;-72
2023/03/01 08:38:34;;;;;;;;;46.50;42.00;;;;;;;;5075897;28;45364;-72
2023/03/01 08:41:00;;;;;;;;;38.50;35.25;;;;;;;;5076280;28;45368;-73
2023/03/01 08:43:25;;;;;;;;;44.50;39.00;;;;;;;;5075444;27;45549;-72
2023/03/01 08:45:50;;;;;;;;;44.25;37.50;;;;;;;;5079038;28;45470;-72
2023/03/01 08:48:15;;;;;;;;;48.00;40.00;;;;;;;;5078588;28;45455;-73
2023/03/01 08:50:41;;;;;;;;;46.75;38.75;;;;;;;;5077400;28;46122;-72
2023/03/01 08:53:06;;;;;;;;;44.00;39.00;;;;;;;;5076515;28;45405;-73
2023/03/01 08:55:31;;;;;;;;;49.50;42.00;;;;;;;;5078010;28;45377;-73
2023/03/01 08:57:58;;;;;;;;;47.50;40.00;;;;;;;;5078172;28;45533;-73
2023/03/01 09:00:24;;;;;;;;;48.00;44.25;;;;;;;;5077914;28;45379;-73
2023/03/01 09:02:50;;;;;;;;;49.75;43.75;;;;;;;;5075589;28;45380;-73
2023/03/01 09:05:15;;;;;;;;;45.75;39.25;;;;;;;;5075818;28;45413;-73
2023/03/01 09:07:40;;;;;;;;;44.25;36.75;;;;;;;;5076931;27;45248;-73
2023/03/01 09:10:06;;;;;;;;;42.75;38.00;;;;;;;;5077486;28;47151;-73
2023/03/01 09:12:31;;;;;;;;;47.75;36.75;;;;;;;;5077443;28;45319;-73
2023/03/01 09:14:56;;;;;;;;;43.75;39.75;;;;;;;;5077677;28;45385;-73
2023/03/01 09:17:21;;;;;;;;;42.50;38.75;;;;;;;;5077775;28;45247;-73
2023/03/01 09:19:46;;;;;;;;;43.00;38.25;;;;;;;;5077496;28;45993;-72
2023/03/01 09:22:11;;;;;;;;;51.00;39.75;;;;;;;;5075963;28;46130;-73
2023/03/01 09:24:37;;;;;;;;;42.25;37.25;;;;;;;;5077640;28;45336;-73
2023/03/01 09:27:02;;;;;;;;;43.25;37.25;;;;;;;;5077862;28;45242;-73
2023/03/01 09:29:28;;;;;;;;;44.50;37.00;;;;;;;;5077270;28;46382;-74
2023/03/01 09:31:54;;;;;;;;;37.25;30.75;;;;;;;;5077315;28;45368;-72
2023/03/01 09:34:22;;;;;;;;;40.25;35.00;;;;;;;;5077528;28;45350;-73
2023/03/01 09:36:48;;;;;;;;;43.25;38.00;;;;;;;;5077190;28;45384;-73
2023/03/01 09:39:13;;;;;;;;;39.75;35.25;;;;;;;;5077172;28;46202;-73
2023/03/01 09:41:57;;;;;;;;;34.50;33.25;;;;;;;;5077265;28;45231;-73
2023/03/01 09:44:37;;;;;;;;;33.00;28.75;;;;;;;;5077203;28;45243;-73
2023/03/01 09:47:03;;;;;;;;;36.00;34.75;;;;;;;;5077073;27;45568;-73
2023/03/01 09:49:30;;;;;;;;;39.00;34.50;;;;;;;;5076685;28;45436;-73
2023/03/01 09:51:57;;;;;;;;;31.25;29.75;;;;;;;;5076845;28;45457;-73
2023/03/01 09:54:22;;;;;;;;;38.25;33.25;;;;;;;;5077252;28;45347;-73
2023/03/01 09:57:00;;;;;;;;;38.50;36.75;;;;;;;;5072378;28;45287;-73
2023/03/01 09:59:39;;;;;;;;;41.75;32.75;;;;;;;;5059528;27;46420;-73
2023/03/01 10:02:11;;;;;;;;;26.25;26.25;;;;;;;;5076351;27;45466;-73
2023/03/01 10:04:39;;;;;;;;;43.25;36.75;;;;;;;;5082747;27;45331;-73
2023/03/01 10:07:10;;;;;;;;;36.25;33.75;;;;;;;;5092649;27;45428;-73
2023/03/01 10:09:36;;;;;;;;;24.00;21.50;;;;;;;;5059139;28;46931;-73
2023/03/01 10:12:04;;;;;;;;;40.75;34.00;;;;;;;;5081805;27;45301;-73
2023/03/01 10:14:29;;;;;;;;;38.00;32.25;;;;;;;;5087733;27;45488;-73
2023/03/01 10:16:58;;;;;;;;;35.00;31.25;;;;;;;;5080629;27;45349;-73
2023/03/01 10:19:23;;;;;;;;;37.75;34.25;;;;;;;;5079916;27;45421;-72
2023/03/01 10:21:50;;;;;;;;;36.50;32.50;;;;;;;;5089333;27;45421;-72
2023/03/01 10:24:18;;;;;;;;;36.00;35.25;;;;;;;;5084971;27;45326;-73
2023/03/01 10:26:50;;;;;;;;;38.00;35.00;;;;;;;;5082500;27;45562;-72
2023/03/01 10:29:15;;;;;;;;;39.00;37.25;;;;;;;;5083368;27;45446;-73
2023/03/01 10:31:46;;;;;;;;;41.00;36.25;;;;;;;;5079226;27;45381;-72
2023/03/01 10:34:13;;;;;;;;;46.75;37.75;;;;;;;;5085508;27;45471;-72
2023/03/01 10:36:40;;;;;;;;;40.50;38.00;;;;;;;;5088439;27;45435;-72
2023/03/01 10:39:11;;;;;;;;;36.75;33.25;;;;;;;;5079014;27;47224;-74
2023/03/01 10:41:45;;;;;;;;;27.00;21.25;;;;;;;;5073525;27;45503;-73
2023/03/01 10:44:30;;;;;;;;;51.25;40.50;;;;;;;;5086572;27;45523;-73
2023/03/01 10:47:00;;;;;;;;;44.75;39.50;;;;;;;;5091164;27;45850;-73
2023/03/01 10:49:26;;;;;;;;;43.75;36.75;;;;;;;;5078791;27;46235;-73
2023/03/01 10:51:52;;;;;;;;;30.75;29.25;;;;;;;;5089413;27;45359;-73
2023/03/01 10:54:19;;;;;;;;;34.00;32.25;;;;;;;;5084737;27;45394;-73
2023/03/01 10:56:53;;;;;;;;;29.50;26.75;;;;;;;;5080804;27;45397;-73
2023/03/01 10:59:35;;;;;;;;;37.25;35.00;;;;;;;;5092351;27;45703;-73
2023/03/01 11:02:09;;;;;;;;;38.75;36.00;;;;;;;;5082699;27;45743;-73
2023/03/01 11:04:35;;;;;;;;;41.00;34.25;;;;;;;;5082988;27;45475;-73
2023/03/01 11:07:00;;;;;;;;;43.50;35.75;;;;;;;;5091408;27;45301;-73
2023/03/01 11:09:33;;;;;;;;;39.25;35.75;;;;;;;;5078559;27;46227;-73
2023/03/01 11:12:00;;;;;;;;;38.75;36.25;;;;;;;;5086104;27;45603;-73
2023/03/01 11:14:40;;;;;;;;;42.00;35.75;;;;;;;;5074547;27;45399;-73
2023/03/01 11:17:12;;;;;;;;;40.00;36.25;;;;;;;;5078480;27;45831;-73
2023/03/01 11:19:37;;;;;;;;;37.75;33.75;;;;;;;;5081045;27;45642;-73
2023/03/01 11:22:11;;;;;;;;;28.25;26.50;;;;;;;;5075229;27;45479;-74
2023/03/01 11:24:39;;;;;;;;;39.00;35.00;;;;;;;;5079893;27;45304;-74
2023/03/01 11:27:11;;;;;;;;;38.00;35.75;;;;;;;;5075152;28;45705;-74
2023/03/01 11:29:40;;;;;;;;;35.50;31.25;;;;;;;;5074701;27;45466;-74
2023/03/01 11:32:07;;;;;;;;;38.25;35.00;;;;;;;;5083554;27;45466;-74
2023/03/01 11:34:39;;;;;;;;;37.00;32.00;;;;;;;;5079590;27;45414;-74
2023/03/01 11:37:09;;;;;;;;;36.50;34.00;;;;;;;;5074090;28;45461;-74
2023/03/01 11:39:58;;;;;;;;;39.25;35.00;;;;;;;;5074331;27;45393;-74
2023/03/01 11:42:28;;;;;;;;;34.50;28.00;;;;;;;;5076031;27;46314;-74
2023/03/01 11:44:54;;;;;;;;;40.25;37.00;;;;;;;;5090302;27;45448;-75
2023/03/01 11:47:19;;;;;;;;;41.25;36.25;;;;;;;;5076800;27;45589;-74
2023/03/01 11:49:51;;;;;;;;;35.75;26.75;;;;;;;;5089816;27;45488;-75
2023/03/01 11:52:23;;;;;;;;;42.00;35.25;;;;;;;;5084973;27;45450;-75
2023/03/01 11:54:48;;;;;;;;;33.75;33.75;;;;;;;;5080900;27;45332;-75
2023/03/01 11:57:19;;;;;;;;;42.50;37.75;;;;;;;;5091485;27;45312;-74
2023/03/01 11:59:45;;;;;;;;;43.25;37.50;;;;;;;;5080116;27;46173;-74
2023/03/01 12:02:29;;;;;;;;;35.75;34.00;;;;;;;;5085913;27;45385;-74
2023/03/01 12:05:14;;;;;;;;;45.00;36.00;;;;;;;;5090274;27;45221;-73
2023/03/01 12:07:42;;;;;;;;;35.00;34.00;;;;;;;;5064141;27;45302;-72
2023/03/01 12:10:28;;;;;;;;;38.50;35.25;;;;;;;;5086398;27;46075;-73
2023/03/01 12:12:58;;;;;;;;;35.25;30.25;;;;;;;;5079942;27;45357;-73
2023/03/01 12:15:42;;;;;;;;;41.50;33.75;;;;;;;;5090898;27;45413;-73
2023/03/01 12:18:26;;;;;;;;;29.75;28.00;;;;;;;;5079072;27;45567;-73
2023/03/01 12:20:51;;;;;;;;;34.75;33.50;;;;;;;;5073119;28;48308;-72
2023/03/01 12:23:16;;;;;;;;;38.00;34.25;;;;;;;;5077611;27;45494;-74
2023/03/01 12:26:00;;;;;;;;;37.75;34.50;;;;;;;;5078759;27;45404;-73
2023/03/01 12:28:39;;;;;;;;;35.00;33.50;;;;;;;;5082803;27;45505;-74
2023/03/01 12:31:27;;;;;;;;;41.25;36.00;;;;;;;;5091280;27;45332;-74
2023/03/01 12:34:08;;;;;;;;;33.00;30.50;;;;;;;;5067242;27;45422;-73
2023/03/01 12:36:52;;;;;;;;;33.00;30.00;;;;;;;;5082154;27;45382;-74
2023/03/01 12:39:35;;;;;;;;;28.25;28.25;;;;;;;;5090977;27;45350;-74
2023/03/01 12:42:03;;;;;;;;;34.25;32.25;;;;;;;;5080534;27;46826;-73
2023/03/01 12:44:49;;;;;;;;;27.25;27.25;;;;;;;;5082707;27;45468;-74
2023/03/01 12:47:30;;;;;;;;;32.25;30.25;;;;;;;;5092100;27;45470;-74
2023/03/01 12:49:59;;;;;;;;;35.25;33.25;;;;;;;;5075871;28;45408;-74
2023/03/01 12:52:36;;;;;;;;;41.00;34.50;;;;;;;;5088807;27;45460;-74
2023/03/01 12:55:07;;;;;;;;;35.00;34.00;;;;;;;;5081480;27;45297;-74
2023/03/01 12:57:47;;;;;;;;;32.75;27.75;;;;;;;;5064700;27;45421;-75
2023/03/01 13:00:24;;;;;;;;;38.00;33.25;;;;;;;;5088269;27;45342;-74
2023/03/01 13:02:57;;;;;;;;;32.00;30.25;;;;;;;;5092081;27;45387;-75
2023/03/01 13:05:42;;;;;;;;;31.25;29.75;;;;;;;;5079360;27;45603;-74
2023/03/01 13:08:07;;;;;;;;;34.25;28.25;;;;;;;;5088819;27;45341;-74
2023/03/01 13:10:43;;;;;;;;;32.25;29.25;;;;;;;;5089496;27;45402;-75
2023/03/01 13:13:08;;;;;;;;;35.00;33.00;;;;;;;;5080094;27;46209;-72
2023/03/01 13:15:37;;;;;;;;;38.00;34.00;;;;;;;;5090569;27;45299;-72
2023/03/01 13:18:04;;;;;;;;;38.75;34.25;;;;;;;;5080799;27;45341;-72
2023/03/01 13:20:29;;;;;;;;;35.50;33.50;;;;;;;;5077003;28;45468;-72
2023/03/01 13:23:13;;;;;;;;;36.75;33.50;;;;;;;;5092621;27;45327;-72
2023/03/01 13:25:57;;;;;;;;;41.75;35.25;;;;;;;;5064721;27;45410;-75
2023/03/01 13:28:31;;;;;;;;;29.00;28.00;;;;;;;;5076854;28;45491;-73
2023/03/01 13:30:56;;;;;;;;;38.00;33.00;;;;;;;;5092755;27;45403;-73
2023/03/01 13:33:27;;;;;;;;;35.25;32.25;;;;;;;;5080229;27;46978;-74
2023/03/01 13:35:57;;;;;;;;;33.50;33.00;;;;;;;;5090779;27;45392;-73
2023/03/01 13:38:40;;;;;;;;;37.75;33.50;;;;;;;;5087414;27;45409;-73
2023/03/01 13:41:06;;;;;;;;;44.25;35.50;;;;;;;;5078129;27;45504;-74
2023/03/01 13:43:34;;;;;;;;;30.00;28.50;;;;;;;;5080350;27;47181;-74
2023/03/01 13:45:59;;;;;;;;;31.25;30.00;;;;;;;;5077341;27;45448;-74
2023/03/01 13:48:26;;;;;;;;;33.25;32.50;;;;;;;;5087599;27;45454;-74
2023/03/01 13:50:58;;;;;;;;;31.75;26.75;;;;;;;;5082229;27;45320;-74
2023/03/01 13:53:25;;;;;;;;;36.00;32.50;;;;;;;;5091792;27;47303;-74
2023/03/01 13:56:16;;;;;;;;;36.75;33.75;;;;;;;;5082664;27;45422;-74
2023/03/01 13:58:47;;;;;;;;;43.50;38.25;;;;;;;;5033009;28;45460;-74
2023/03/01 14:01:20;;;;;;;;;40.75;35.25;;;;;;;;5033919;28;45364;-74
2023/03/01 14:03:45;;;;;;;;;35.00;32.50;;;;;;;;5033683;28;45427;-73
2023/03/01 14:06:19;;;;;;;;;40.75;33.50;;;;;;;;5028079;28;45481;-73
2023/03/01 14:08:45;;;;;;;;;39.50;35.25;;;;;;;;5018517;28;45762;-74
2023/03/01 14:11:28;;;;;;;;;38.75;33.25;;;;;;;;5030134;28;45242;-73
2023/03/01 14:14:08;;;;;;;;;40.75;35.00;;;;;;;;5021254;28;47342;-73
2023/03/01 14:16:47;;;;;;;;;35.00;30.75;;;;;;;;5020421;28;45410;-74
2023/03/01 14:19:19;;;;;;;;;37.25;33.00;;;;;;;;5018776;28;45463;-75
2023/03/01 14:21:45;;;;;;;;;34.25;30.25;;;;;;;;5020904;28;45516;-74